This is the latest recevied weather packets stored in our database for station/object W1WRA. If no packets are shown the sender has not sent any weather packets the latest 10 day(s).
| Time | Temp. | Humidity | Pressure | Rain* | Wind** | Luminosity | Snow |
|---|---|---|---|---|---|---|---|
| 1777910136 | 20° C | 34% | 1007.5 hPa | 0 mm | - | 884 W/m² | - |
| 1777903517 | 16.11° C | 42% | 1008.7 hPa | 0 mm | - | 342 W/m² | - |
| 1777902937 | 15.56° C | 44% | 1008.8 hPa | 0 mm | - | 324 W/m² | - |
| 1777900537 | 12.78° C | 50% | 1009.1 hPa | 0 mm | - | 114 W/m² | - |
| 1777895119 | 7.22° C | 72% | 1009.6 hPa | 0 mm | - | 39 W/m² | - |
| 1777894539 | 6.67° C | 71% | 1009.6 hPa | 0 mm | - | 37 W/m² | - |
| 1777889720 | 3.89° C | 84% | 1009.6 hPa | 0 mm | - | 13 W/m² | - |
| 1777887920 | 4.44° C | 81% | 1009.6 hPa | 0 mm | - | 3 W/m² | - |
| 1777881922 | 4.44° C | 84% | 1009.6 hPa | 0 mm | - | 0 W/m² | - |
| 1777881322 | 4.44° C | 79% | 1009.6 hPa | 0 mm | - | 0 W/m² | - |
| 1777877123 | 4.44° C | 85% | 1009.6 hPa | 0 mm | - | 0 W/m² | - |
| 1777875323 | 3.89° C | 82% | 1009.6 hPa | 0 mm | - | 0 W/m² | - |
| 1777869916 | 1.67° C | 88% | 1009.7 hPa | 0 mm | - | 0 W/m² | - |
| 1777868116 | 1.11° C | 86% | 1009.6 hPa | 0 mm | - | 0 W/m² | - |
| 1777857316 | 3.33° C | 75% | 1008.9 hPa | 0 mm | - | 0 W/m² | - |
| 1777847118 | 10° C | 43% | 1007.3 hPa | 0 mm | - | 31 W/m² | - |
| 1777841717 | 10.56° C | 43% | 1006.4 hPa | 0 mm | - | 129 W/m² | - |
| 1777839917 | 10.56° C | 42% | 1006.2 hPa | 0 mm | - | 140 W/m² | - |
| 1777837518 | 11.11° C | 42% | 1006 hPa | 0 mm | - | 198 W/m² | - |
| 1777835718 | 10.56° C | 44% | 1006.1 hPa | 0 mm | - | 126 W/m² | - |
| 1777832716 | 11.11° C | 47% | 1006.1 hPa | 0 mm | - | 118 W/m² | - |
| 1777830336 | 10.56° C | 49% | 1006.2 hPa | 0 mm | - | 406 W/m² | - |
| 1777826720 | 10° C | 56% | 1006.2 hPa | 0 mm | - | 233 W/m² | - |
| 1777823121 | 8.89° C | 62% | 1006.5 hPa | 0 mm | - | 243 W/m² | - |
| 1777814722 | 5.56° C | 89% | 1007.1 hPa | 0 mm | - | 50 W/m² | - |
* Rain latest hour (hover to see other rain measurements)
** Current wind speed in m/s (hover to see current wind gust speed)